Time;durP1;ratioP1;P1;durP2;ratioP2;P2;SDS_P1;SDS_P2;PMS_P1;PMS_P2;Temp;Humidity;BMP_temperature;BMP_pressure;BME280_temperature;BME280_humidity;BME280_pressure;Samples;Min_cycle;Max_cycle;Signal;HPM_P1;HPM_P2
2023/07/08 00:01:57;;;;;;;6.72;3.50;;;;;;;;;;6212988;23;20012;-62
2023/07/08 00:04:23;;;;;;;5.88;3.40;;;;;;;;;;6213699;23;20009;-62
2023/07/08 00:06:49;;;;;;;8.57;3.53;;;;;;;;;;6213789;23;20044;-62
2023/07/08 00:09:15;;;;;;;5.38;3.30;;;;;;;;;;6213520;23;20067;-62
2023/07/08 00:11:41;;;;;;;5.68;3.42;;;;;;;;;;6213736;23;20016;-62
2023/07/08 00:14:07;;;;;;;6.70;4.05;;;;;;;;;;6213955;23;20044;-62
2023/07/08 00:16:34;;;;;;;7.28;3.58;;;;;;;;;;6213722;23;20626;-62
2023/07/08 00:19:00;;;;;;;6.78;3.75;;;;;;;;;;6212933;23;20656;-62
2023/07/08 00:21:26;;;;;;;5.95;3.80;;;;;;;;;;6213568;23;20012;-62
2023/07/08 00:23:52;;;;;;;5.00;3.38;;;;;;;;;;6213711;23;20013;-62
2023/07/08 00:26:28;;;;;;;7.80;3.80;;;;;;;;;;6213402;23;20015;-62
2023/07/08 00:28:55;;;;;;;10.52;4.05;;;;;;;;;;6213721;23;20319;-62
2023/07/08 00:31:23;;;;;;;7.28;4.07;;;;;;;;;;6213643;23;20364;-62
2023/07/08 00:33:50;;;;;;;5.70;3.10;;;;;;;;;;6213474;23;20013;-62
2023/07/08 00:36:17;;;;;;;6.35;3.45;;;;;;;;;;6213195;23;20055;-62
2023/07/08 00:38:44;;;;;;;5.53;3.47;;;;;;;;;;6213643;23;20012;-62
2023/07/08 00:41:23;;;;;;;6.40;4.18;;;;;;;;;;6212729;23;20016;-62
2023/07/08 00:43:50;;;;;;;6.65;3.78;;;;;;;;;;6213472;23;20017;-62
2023/07/08 00:46:31;;;;;;;10.43;3.90;;;;;;;;;;6212759;23;20051;-62
2023/07/08 00:49:09;;;;;;;6.65;3.83;;;;;;;;;;6213490;23;20466;-62
2023/07/08 00:51:39;;;;;;;7.55;4.00;;;;;;;;;;6213326;23;20013;-62
2023/07/08 00:54:11;;;;;;;7.60;3.83;;;;;;;;;;6212889;23;20016;-62
2023/07/08 00:56:45;;;;;;;8.07;4.18;;;;;;;;;;6213514;23;20095;-62
2023/07/08 00:59:31;;;;;;;9.68;4.25;;;;;;;;;;6213465;23;20339;-62
2023/07/08 01:02:00;;;;;;;5.00;3.67;;;;;;;;;;6212479;23;20020;-62
2023/07/08 01:04:33;;;;;;;5.75;3.70;;;;;;;;;;6213128;23;20015;-62
2023/07/08 01:07:03;;;;;;;4.68;3.42;;;;;;;;;;6212590;23;20013;-62
2023/07/08 01:09:34;;;;;;;8.57;3.88;;;;;;;;;;6212713;23;20062;-62
2023/07/08 01:12:03;;;;;;;8.05;4.47;;;;;;;;;;6213047;23;20023;-62
2023/07/08 01:14:31;;;;;;;4.97;3.70;;;;;;;;;;6211479;23;20012;-62
2023/07/08 01:16:57;;;;;;;6.90;4.07;;;;;;;;;;6212658;23;20471;-62
2023/07/08 01:19:33;;;;;;;6.22;4.20;;;;;;;;;;6213200;23;20216;-62
2023/07/08 01:21:59;;;;;;;6.20;4.00;;;;;;;;;;6212508;23;20060;-62
2023/07/08 01:24:26;;;;;;;5.05;4.00;;;;;;;;;;6212646;23;20008;-62
2023/07/08 01:26:52;;;;;;;6.65;4.30;;;;;;;;;;6213252;23;20062;-62
2023/07/08 01:29:18;;;;;;;7.70;3.90;;;;;;;;;;6213122;23;20012;-62
2023/07/08 01:31:48;;;;;;;7.22;4.05;;;;;;;;;;6212568;23;20027;-62
2023/07/08 01:34:15;;;;;;;5.93;4.10;;;;;;;;;;6213085;23;20020;-62
2023/07/08 01:36:43;;;;;;;6.60;4.43;;;;;;;;;;6213037;23;20020;-62
2023/07/08 01:39:13;;;;;;;9.48;4.40;;;;;;;;;;6212667;23;20717;-62
2023/07/08 01:41:40;;;;;;;7.72;4.45;;;;;;;;;;6212737;23;20446;-62
2023/07/08 01:44:06;;;;;;;9.73;4.22;;;;;;;;;;6213018;23;20020;-62
2023/07/08 01:46:32;;;;;;;6.20;4.07;;;;;;;;;;6212106;23;20021;-62
2023/07/08 01:49:00;;;;;;;6.80;4.10;;;;;;;;;;6212949;23;20053;-62
2023/07/08 01:51:27;;;;;;;6.38;4.32;;;;;;;;;;6211314;23;20337;-62
2023/07/08 01:53:53;;;;;;;6.68;4.18;;;;;;;;;;6212502;23;20063;-62
2023/07/08 01:56:19;;;;;;;8.20;4.28;;;;;;;;;;6212657;23;20020;-62
2023/07/08 01:58:45;;;;;;;6.72;4.47;;;;;;;;;;6212858;23;20013;-62
2023/07/08 02:01:11;;;;;;;6.18;3.80;;;;;;;;;;6212307;23;20019;-62
2023/07/08 02:03:37;;;;;;;13.10;4.72;;;;;;;;;;6212638;23;20023;-62
2023/07/08 02:06:03;;;;;;;6.18;4.45;;;;;;;;;;6212369;23;20059;-62
2023/07/08 02:08:30;;;;;;;9.40;4.53;;;;;;;;;;6212516;23;20135;-62
2023/07/08 02:10:57;;;;;;;6.28;4.38;;;;;;;;;;6212592;23;20408;-62
2023/07/08 02:13:23;;;;;;;8.93;4.35;;;;;;;;;;6212772;23;20119;-62
2023/07/08 02:15:49;;;;;;;8.98;5.05;;;;;;;;;;6211987;23;20103;-62
2023/07/08 02:18:15;;;;;;;7.40;5.00;;;;;;;;;;6213081;23;20070;-62
2023/07/08 02:20:43;;;;;;;8.07;4.65;;;;;;;;;;6212797;23;20016;-62
2023/07/08 02:23:09;;;;;;;8.98;4.22;;;;;;;;;;6212135;23;20012;-62
2023/07/08 02:25:35;;;;;;;8.27;4.32;;;;;;;;;;6212669;23;20080;-62
2023/07/08 02:28:01;;;;;;;6.50;4.38;;;;;;;;;;6185674;23;20009;-62
2023/07/08 02:30:27;;;;;;;7.82;4.50;;;;;;;;;;6212305;23;20020;-62
2023/07/08 02:32:56;;;;;;;9.25;4.53;;;;;;;;;;6212594;23;20316;-62
2023/07/08 02:35:27;;;;;;;9.30;4.82;;;;;;;;;;6212027;23;20020;-62
2023/07/08 02:37:53;;;;;;;7.45;4.95;;;;;;;;;;6212307;23;20020;-62
2023/07/08 02:40:20;;;;;;;7.35;4.82;;;;;;;;;;6212869;23;20104;-62
2023/07/08 02:42:46;;;;;;;8.88;4.65;;;;;;;;;;6213417;23;20040;-62
2023/07/08 02:45:12;;;;;;;10.48;4.38;;;;;;;;;;6214126;23;20424;-62
2023/07/08 02:47:38;;;;;;;8.80;4.47;;;;;;;;;;6214807;23;20004;-62
2023/07/08 02:50:05;;;;;;;10.85;5.50;;;;;;;;;;6214707;23;20480;-62
2023/07/08 02:52:31;;;;;;;8.40;4.72;;;;;;;;;;6213916;23;20099;-62
2023/07/08 02:54:57;;;;;;;8.30;5.22;;;;;;;;;;6214535;23;20017;-62
2023/07/08 02:57:23;;;;;;;8.02;4.68;;;;;;;;;;6214503;23;20016;-62
2023/07/08 02:59:49;;;;;;;6.97;4.72;;;;;;;;;;6214213;23;20023;-62
2023/07/08 03:02:15;;;;;;;6.80;5.18;;;;;;;;;;6214208;23;20017;-62
2023/07/08 03:04:41;;;;;;;7.18;4.88;;;;;;;;;;6214538;23;20013;-62
2023/07/08 03:07:11;;;;;;;8.18;5.90;;;;;;;;;;6213986;23;20527;-62
2023/07/08 03:09:38;;;;;;;12.32;5.22;;;;;;;;;;6214219;23;20082;-62
2023/07/08 03:12:05;;;;;;;7.88;4.85;;;;;;;;;;6214315;23;20024;-62
2023/07/08 03:14:31;;;;;;;8.40;5.20;;;;;;;;;;6213987;23;20424;-62
2023/07/08 03:16:57;;;;;;;9.48;5.00;;;;;;;;;;6213931;23;20020;-62
2023/07/08 03:19:23;;;;;;;8.77;4.85;;;;;;;;;;6214338;23;20484;-62
2023/07/08 03:21:49;;;;;;;8.85;5.15;;;;;;;;;;6213581;23;20012;-62
2023/07/08 03:24:18;;;;;;;6.80;4.60;;;;;;;;;;6214154;23;20015;-62
2023/07/08 03:26:44;;;;;;;9.77;5.53;;;;;;;;;;6214238;23;20020;-62
2023/07/08 03:29:18;;;;;;;9.43;5.00;;;;;;;;;;6213850;23;20791;-62
2023/07/08 03:31:45;;;;;;;8.10;5.45;;;;;;;;;;6213985;23;20016;-62
2023/07/08 03:34:15;;;;;;;7.72;5.13;;;;;;;;;;6213693;23;20005;-62
2023/07/08 03:36:48;;;;;;;7.72;5.05;;;;;;;;;;6213692;23;20053;-62
2023/07/08 03:39:14;;;;;;;8.60;5.30;;;;;;;;;;6214140;23;20019;-62
2023/07/08 03:41:41;;;;;;;10.35;5.40;;;;;;;;;;6213685;23;20589;-62
2023/07/08 03:44:07;;;;;;;8.38;5.18;;;;;;;;;;6213459;23;20304;-62
2023/07/08 03:46:33;;;;;;;7.72;5.00;;;;;;;;;;6214220;23;20013;-62
2023/07/08 03:48:59;;;;;;;11.00;5.45;;;;;;;;;;6213791;23;20100;-61
2023/07/08 03:51:28;;;;;;;10.05;5.53;;;;;;;;;;6213517;23;20019;-61
2023/07/08 03:53:54;;;;;;;7.25;5.38;;;;;;;;;;6213713;23;20024;-62
2023/07/08 03:56:20;;;;;;;10.35;5.20;;;;;;;;;;6213925;23;20020;-62
2023/07/08 03:58:46;;;;;;;9.48;5.53;;;;;;;;;;6213426;23;20012;-62
2023/07/08 04:01:17;;;;;;;12.88;5.90;;;;;;;;;;6213978;23;20335;-62
2023/07/08 04:03:43;;;;;;;11.80;5.40;;;;;;;;;;6213505;23;20048;-62
2023/07/08 04:06:09;;;;;;;9.48;5.20;;;;;;;;;;6213415;23;20019;-62
2023/07/08 04:08:35;;;;;;;9.57;5.47;;;;;;;;;;6213764;23;20012;-62
2023/07/08 04:11:01;;;;;;;8.57;5.55;;;;;;;;;;6213732;23;20020;-62
2023/07/08 04:13:27;;;;;;;9.13;5.75;;;;;;;;;;6213530;23;20538;-62
2023/07/08 04:15:55;;;;;;;8.30;5.60;;;;;;;;;;6213492;23;20048;-62
2023/07/08 04:18:21;;;;;;;8.98;5.00;;;;;;;;;;6213295;23;20092;-62
2023/07/08 04:20:52;;;;;;;8.07;5.93;;;;;;;;;;6213692;23;20074;-62
2023/07/08 04:23:21;;;;;;;10.07;5.70;;;;;;;;;;6213519;23;20376;-62
2023/07/08 04:25:48;;;;;;;9.75;5.07;;;;;;;;;;6213834;23;20639;-62
2023/07/08 04:28:15;;;;;;;6.22;5.40;;;;;;;;;;6213450;23;20339;-62
2023/07/08 04:30:42;;;;;;;11.52;5.70;;;;;;;;;;6213612;23;20367;-62
2023/07/08 04:33:08;;;;;;;12.90;6.10;;;;;;;;;;6213427;23;20748;-62
2023/07/08 04:35:35;;;;;;;7.90;4.88;;;;;;;;;;6213008;23;20348;-62
2023/07/08 04:38:01;;;;;;;7.22;4.97;;;;;;;;;;6213205;23;20027;-62
2023/07/08 04:40:27;;;;;;;7.13;4.93;;;;;;;;;;6213365;23;20027;-62
2023/07/08 04:42:53;;;;;;;7.18;5.25;;;;;;;;;;6213135;23;20009;-61
2023/07/08 04:45:20;;;;;;;11.38;5.40;;;;;;;;;;6211579;23;20012;-61
2023/07/08 04:47:52;;;;;;;8.50;4.90;;;;;;;;;;6213302;23;20047;-61
2023/07/08 04:50:18;;;;;;;7.55;4.95;;;;;;;;;;6213112;23;20012;-62
2023/07/08 04:52:45;;;;;;;8.38;5.25;;;;;;;;;;6212760;23;20016;-62
2023/07/08 04:55:13;;;;;;;8.77;5.20;;;;;;;;;;6212930;23;20016;-62
2023/07/08 04:57:39;;;;;;;7.30;4.82;;;;;;;;;;6213410;23;20087;-62
2023/07/08 05:00:08;;;;;;;6.88;5.43;;;;;;;;;;6213032;23;20008;-62
2023/07/08 05:02:34;;;;;;;5.40;4.68;;;;;;;;;;6212942;23;20020;-62
2023/07/08 05:05:00;;;;;;;8.75;4.85;;;;;;;;;;6186257;23;20440;-62
2023/07/08 05:07:27;;;;;;;8.25;5.00;;;;;;;;;;6212988;23;20013;-62
2023/07/08 05:09:53;;;;;;;6.78;4.50;;;;;;;;;;6213275;23;20585;-62
2023/07/08 05:12:19;;;;;;;7.95;4.80;;;;;;;;;;6213306;23;20020;-61
2023/07/08 05:14:45;;;;;;;8.95;5.63;;;;;;;;;;6212790;23;20012;-62
2023/07/08 05:17:11;;;;;;;8.48;5.32;;;;;;;;;;6212922;23;20072;-62
2023/07/08 05:19:37;;;;;;;7.60;5.18;;;;;;;;;;6213311;23;20042;-62
2023/07/08 05:22:03;;;;;;;8.68;4.85;;;;;;;;;;6212404;23;20024;-62
2023/07/08 05:24:29;;;;;;;6.53;4.68;;;;;;;;;;6213213;23;20020;-62
2023/07/08 05:26:55;;;;;;;8.75;4.65;;;;;;;;;;6211739;23;20016;-62
2023/07/08 05:29:21;;;;;;;7.38;4.55;;;;;;;;;;6212823;23;20478;-62
2023/07/08 05:31:47;;;;;;;8.05;4.93;;;;;;;;;;6212902;23;20031;-62
2023/07/08 05:34:14;;;;;;;5.50;4.32;;;;;;;;;;6212944;23;20008;-62
2023/07/08 05:36:40;;;;;;;5.93;4.82;;;;;;;;;;6212117;23;20017;-62
2023/07/08 05:39:06;;;;;;;5.90;4.57;;;;;;;;;;6213091;23;20013;-62
2023/07/08 05:41:32;;;;;;;7.45;4.80;;;;;;;;;;6212937;23;20466;-62
2023/07/08 05:43:58;;;;;;;6.60;4.80;;;;;;;;;;6212297;23;20096;-62
2023/07/08 05:46:24;;;;;;;6.40;4.47;;;;;;;;;;6212947;23;20016;-62
2023/07/08 05:48:50;;;;;;;9.60;5.55;;;;;;;;;;6212677;23;20013;-62
2023/07/08 05:51:17;;;;;;;5.97;4.97;;;;;;;;;;6212305;23;20604;-62
2023/07/08 05:53:43;;;;;;;7.55;4.90;;;;;;;;;;6212750;23;20018;-62
2023/07/08 05:56:09;;;;;;;10.68;4.95;;;;;;;;;;6212978;23;20019;-62
2023/07/08 05:58:35;;;;;;;7.85;5.50;;;;;;;;;;6211974;23;20017;-62
2023/07/08 06:01:01;;;;;;;9.38;5.18;;;;;;;;;;6212680;23;20524;-62
2023/07/08 06:03:27;;;;;;;7.18;4.55;;;;;;;;;;6212154;23;20019;-62
2023/07/08 06:05:53;;;;;;;6.22;4.10;;;;;;;;;;6212027;23;20013;-62
2023/07/08 06:08:20;;;;;;;5.20;4.30;;;;;;;;;;6212820;23;20019;-62
2023/07/08 06:10:47;;;;;;;8.65;5.07;;;;;;;;;;6212835;23;20005;-62
2023/07/08 06:13:13;;;;;;;7.55;4.43;;;;;;;;;;6212196;23;20375;-62
2023/07/08 06:15:39;;;;;;;5.03;3.88;;;;;;;;;;6212396;23;20100;-62
2023/07/08 06:18:06;;;;;;;6.22;4.78;;;;;;;;;;6212436;23;20017;-62
2023/07/08 06:20:32;;;;;;;7.82;4.38;;;;;;;;;;6212338;23;20024;-62
2023/07/08 06:22:58;;;;;;;7.10;4.90;;;;;;;;;;6212075;23;20074;-62
2023/07/08 06:25:24;;;;;;;5.28;4.10;;;;;;;;;;6212618;23;20017;-62
2023/07/08 06:27:50;;;;;;;7.10;4.80;;;;;;;;;;6212275;23;20563;-63
2023/07/08 06:30:16;;;;;;;5.85;4.45;;;;;;;;;;6212454;23;20015;-62
2023/07/08 06:32:42;;;;;;;6.22;4.32;;;;;;;;;;6212375;23;20013;-62
2023/07/08 06:35:08;;;;;;;5.68;4.45;;;;;;;;;;6211588;23;20021;-62
2023/07/08 06:37:34;;;;;;;6.40;4.18;;;;;;;;;;6212459;23;20027;-62
2023/07/08 06:40:00;;;;;;;7.03;4.28;;;;;;;;;;6212470;23;20019;-62
2023/07/08 06:42:26;;;;;;;7.93;4.57;;;;;;;;;;6211356;23;20024;-62
2023/07/08 06:44:53;;;;;;;5.72;4.20;;;;;;;;;;6212498;23;20015;-62
2023/07/08 06:47:22;;;;;;;5.82;3.83;;;;;;;;;;6212207;23;20013;-62
2023/07/08 06:49:49;;;;;;;7.97;4.00;;;;;;;;;;6212107;23;20015;-62
2023/07/08 06:52:15;;;;;;;6.15;4.38;;;;;;;;;;6212595;23;20059;-62
2023/07/08 06:54:41;;;;;;;8.95;4.22;;;;;;;;;;6212653;23;20360;-62
2023/07/08 06:57:07;;;;;;;8.15;4.55;;;;;;;;;;6211994;23;20016;-62
2023/07/08 06:59:34;;;;;;;4.45;3.85;;;;;;;;;;6212509;23;20016;-62
2023/07/08 07:02:00;;;;;;;5.85;3.85;;;;;;;;;;6212039;23;20091;-62
2023/07/08 07:04:25;;;;;;;6.50;3.92;;;;;;;;;;6211731;23;20051;-62
2023/07/08 07:06:52;;;;;;;8.05;4.07;;;;;;;;;;6212523;23;20011;-62
2023/07/08 07:09:18;;;;;;;7.35;3.78;;;;;;;;;;6212330;23;20039;-62
2023/07/08 07:11:44;;;;;;;7.32;3.83;;;;;;;;;;6211802;23;20012;-62
2023/07/08 07:14:10;;;;;;;4.22;3.80;;;;;;;;;;6212435;23;20088;-62
2023/07/08 07:16:36;;;;;;;4.53;3.67;;;;;;;;;;6212697;23;20017;-62
2023/07/08 07:19:02;;;;;;;7.00;4.13;;;;;;;;;;6212053;23;20059;-62
2023/07/08 07:21:28;;;;;;;5.95;3.92;;;;;;;;;;6210754;23;20461;-62
2023/07/08 07:23:54;;;;;;;5.05;3.95;;;;;;;;;;6212105;23;20028;-62
2023/07/08 07:26:20;;;;;;;8.18;3.78;;;;;;;;;;6211627;23;20440;-62
2023/07/08 07:28:46;;;;;;;6.63;3.63;;;;;;;;;;6213502;23;20339;-62
2023/07/08 07:31:12;;;;;;;8.75;3.90;;;;;;;;;;6214105;23;20044;-62
2023/07/08 07:33:38;;;;;;;6.50;3.80;;;;;;;;;;6213915;23;20478;-62
2023/07/08 07:36:04;;;;;;;5.05;3.63;;;;;;;;;;6213701;23;20020;-62
2023/07/08 07:38:33;;;;;;;4.63;3.30;;;;;;;;;;6214321;23;20023;-62
2023/07/08 07:41:00;;;;;;;7.57;3.67;;;;;;;;;;6213332;23;20055;-62
2023/07/08 07:43:26;;;;;;;6.95;3.50;;;;;;;;;;6213996;23;20046;-62
2023/07/08 07:45:52;;;;;;;6.88;3.50;;;;;;;;;;6213935;23;20439;-62
2023/07/08 07:48:19;;;;;;;6.47;3.85;;;;;;;;;;6212042;23;20047;-62
2023/07/08 07:50:51;;;;;;;8.38;3.72;;;;;;;;;;6214115;23;20062;-62
2023/07/08 07:53:17;;;;;;;5.28;3.50;;;;;;;;;;6213653;23;20023;-62
2023/07/08 07:55:43;;;;;;;7.65;3.75;;;;;;;;;;6213600;23;20021;-62
2023/07/08 07:58:11;;;;;;;5.80;3.30;;;;;;;;;;6213940;23;20464;-62
2023/07/08 08:00:38;;;;;;;7.30;3.72;;;;;;;;;;6213893;23;20021;-62
2023/07/08 08:03:04;;;;;;;8.18;3.70;;;;;;;;;;6213303;23;20354;-62
2023/07/08 08:05:30;;;;;;;6.30;3.50;;;;;;;;;;6213976;23;20092;-62
2023/07/08 08:07:56;;;;;;;5.05;3.50;;;;;;;;;;6213846;23;20008;-62
2023/07/08 08:10:22;;;;;;;5.25;3.28;;;;;;;;;;6213396;23;20483;-62
2023/07/08 08:12:50;;;;;;;5.88;3.70;;;;;;;;;;6213884;23;20683;-62
2023/07/08 08:15:17;;;;;;;8.63;3.53;;;;;;;;;;6213946;23;20048;-62
2023/07/08 08:17:47;;;;;;;4.55;3.47;;;;;;;;;;6213160;23;20072;-62
2023/07/08 08:20:13;;;;;;;5.13;3.40;;;;;;;;;;6213835;23;20320;-62
2023/07/08 08:22:39;;;;;;;6.90;3.78;;;;;;;;;;6213160;23;20317;-62
2023/07/08 08:25:05;;;;;;;6.20;3.67;;;;;;;;;;6213289;23;20019;-62
2023/07/08 08:27:31;;;;;;;6.88;3.45;;;;;;;;;;6213865;23;20135;-62
2023/07/08 08:29:57;;;;;;;5.88;3.67;;;;;;;;;;6186808;23;20009;-62
2023/07/08 08:32:23;;;;;;;5.82;3.63;;;;;;;;;;6213339;23;20092;-62
2023/07/08 08:34:49;;;;;;;4.45;3.17;;;;;;;;;;6212687;23;20025;-62
2023/07/08 08:37:15;;;;;;;6.55;3.83;;;;;;;;;;6213706;23;20070;-62
2023/07/08 08:39:41;;;;;;;6.78;3.67;;;;;;;;;;6213452;23;20480;-62
2023/07/08 08:42:18;;;;;;;6.78;3.88;;;;;;;;;;6213025;23;20013;-62
2023/07/08 08:44:45;;;;;;;10.30;3.83;;;;;;;;;;6213479;23;20088;-62
2023/07/08 08:47:32;;;;;;;6.80;3.47;;;;;;;;;;6213366;23;20016;-62
2023/07/08 08:50:02;;;;;;;11.40;3.95;;;;;;;;;;6213342;23;20008;-62
2023/07/08 08:52:28;;;;;;;5.97;3.45;;;;;;;;;;6213449;23;20016;-62
2023/07/08 08:54:54;;;;;;;5.43;3.40;;;;;;;;;;6212653;23;20103;-62
2023/07/08 08:57:28;;;;;;;7.97;3.50;;;;;;;;;;6186517;23;20045;-62
2023/07/08 08:59:55;;;;;;;7.60;3.78;;;;;;;;;;6213297;23;20009;-62
2023/07/08 09:02:27;;;;;;;7.72;3.38;;;;;;;;;;6212631;23;20447;-62
2023/07/08 09:04:53;;;;;;;5.38;3.33;;;;;;;;;;6213284;23;20067;-62
2023/07/08 09:07:20;;;;;;;6.68;4.10;;;;;;;;;;6213415;23;20440;-62
2023/07/08 09:09:49;;;;;;;7.15;3.40;;;;;;;;;;6212796;23;20576;-62
2023/07/08 09:12:19;;;;;;;4.32;3.35;;;;;;;;;;6213041;23;20027;-62
2023/07/08 09:14:45;;;;;;;7.47;3.40;;;;;;;;;;6213293;23;20026;-62
2023/07/08 09:17:32;;;;;;;5.95;3.65;;;;;;;;;;6212732;23;20335;-62
2023/07/08 09:20:10;;;;;;;5.82;3.25;;;;;;;;;;6213336;23;20016;-62
2023/07/08 09:22:56;;;;;;;4.97;3.40;;;;;;;;;;6185940;23;20732;-62
2023/07/08 09:25:25;;;;;;;4.50;3.30;;;;;;;;;;6212155;23;20019;-62
2023/07/08 09:27:51;;;;;;;4.50;3.33;;;;;;;;;;6212592;23;20023;-62
2023/07/08 09:30:20;;;;;;;5.03;3.33;;;;;;;;;;6213122;23;20443;-62
2023/07/08 09:32:46;;;;;;;4.97;3.50;;;;;;;;;;6212052;23;20027;-62
2023/07/08 09:35:17;;;;;;;4.90;3.20;;;;;;;;;;6212592;23;20051;-62
2023/07/08 09:37:46;;;;;;;5.05;3.78;;;;;;;;;;6213089;23;20095;-62
2023/07/08 09:40:29;;;;;;;6.60;3.83;;;;;;;;;;6212368;23;20021;-62
2023/07/08 09:42:59;;;;;;;5.68;3.70;;;;;;;;;;6212629;23;20323;-62
2023/07/08 09:45:25;;;;;;;5.15;3.65;;;;;;;;;;6212951;23;20016;-62
2023/07/08 09:47:57;;;;;;;5.93;4.10;;;;;;;;;;6212512;23;20657;-62
2023/07/08 09:50:27;;;;;;;4.50;3.50;;;;;;;;;;6212608;23;20013;-62
2023/07/08 09:52:54;;;;;;;10.43;3.53;;;;;;;;;;6185936;23;20028;-62
2023/07/08 09:55:20;;;;;;;6.28;3.55;;;;;;;;;;6212550;23;20024;-62
2023/07/08 09:57:47;;;;;;;5.45;2.90;;;;;;;;;;6212695;23;20023;-62
2023/07/08 10:00:16;;;;;;;6.65;3.75;;;;;;;;;;6212954;23;20123;-62
2023/07/08 10:03:03;;;;;;;8.65;3.72;;;;;;;;;;6212090;23;20428;-62
2023/07/08 10:05:32;;;;;;;4.05;3.30;;;;;;;;;;6212901;23;20064;-62
2023/07/08 10:07:58;;;;;;;7.82;3.65;;;;;;;;;;6212622;23;20016;-62
2023/07/08 10:10:34;;;;;;;5.43;3.70;;;;;;;;;;6212396;23;20013;-62
2023/07/08 10:13:03;;;;;;;4.95;3.30;;;;;;;;;;6212735;23;20436;-62
2023/07/08 10:15:50;;;;;;;6.15;3.20;;;;;;;;;;6212798;23;20063;-62
2023/07/08 10:18:17;;;;;;;6.68;3.60;;;;;;;;;;6211787;23;20075;-62
2023/07/08 10:20:57;;;;;;;9.27;3.45;;;;;;;;;;6212674;23;20325;-62
2023/07/08 10:23:33;;;;;;;5.45;3.45;;;;;;;;;;6212415;23;20024;-62
2023/07/08 10:26:21;;;;;;;5.80;3.58;;;;;;;;;;6212630;23;20013;-62
2023/07/08 10:28:53;;;;;;;6.15;3.75;;;;;;;;;;6185136;23;20087;-62
2023/07/08 10:31:28;;;;;;;6.32;3.55;;;;;;;;;;6212162;23;20016;-62
2023/07/08 10:33:54;;;;;;;7.65;3.60;;;;;;;;;;6212607;23;20012;-62
2023/07/08 10:36:30;;;;;;;6.65;3.40;;;;;;;;;;6212125;23;20024;-62
2023/07/08 10:38:55;;;;;;;4.18;3.20;;;;;;;;;;6212143;23;20040;-62
2023/07/08 10:41:29;;;;;;;5.75;3.75;;;;;;;;;;6212626;23;20017;-62
2023/07/08 10:44:15;;;;;;;5.03;3.45;;;;;;;;;;6212255;23;20052;-62
2023/07/08 10:46:50;;;;;;;5.35;4.07;;;;;;;;;;6191114;23;20020;-62
2023/07/08 10:49:48;;;;;;;6.25;3.40;;;;;;;;;;6212499;23;20656;-62
2023/07/08 10:52:34;;;;;;;6.95;3.53;;;;;;;;;;6107411;23;20374;-62
2023/07/08 10:55:09;;;;;;;6.90;3.20;;;;;;;;;;6212163;23;20339;-62
2023/07/08 10:57:35;;;;;;;3.45;3.03;;;;;;;;;;6212384;23;20374;-62
2023/07/08 11:00:04;;;;;;;6.70;3.70;;;;;;;;;;6212629;23;20043;-62
2023/07/08 11:02:49;;;;;;;4.75;3.72;;;;;;;;;;6211884;23;20016;-62
2023/07/08 11:05:31;;;;;;;6.63;3.15;;;;;;;;;;6214741;23;20012;-62
2023/07/08 11:07:57;;;;;;;;;;;;;;;;;;6214528;23;20005;-62
2023/07/08 11:10:29;;;;;;;6.55;3.60;;;;;;;;;;6214383;23;19983;-62
2023/07/08 11:12:58;;;;;;;6.10;3.17;;;;;;;;;;6214292;23;20020;-62
2023/07/08 11:15:33;;;;;;;4.70;3.05;;;;;;;;;;6213990;23;20031;-62
2023/07/08 11:18:03;;;;;;;9.10;4.00;;;;;;;;;;6214384;23;20021;-62
2023/07/08 11:20:40;;;;;;;6.22;3.70;;;;;;;;;;6214379;23;20017;-62
2023/07/08 11:23:17;;;;;;;5.53;3.55;;;;;;;;;;6213182;23;20012;-62
2023/07/08 11:25:44;;;;;;;7.40;3.45;;;;;;;;;;6214188;23;20087;-62
2023/07/08 11:28:13;;;;;;;7.22;3.17;;;;;;;;;;6214159;23;20013;-62
2023/07/08 11:30:42;;;;;;;8.07;3.28;;;;;;;;;;6186858;23;20017;-62
2023/07/08 11:33:10;;;;;;;4.60;2.95;;;;;;;;;;6214069;23;20016;-62
2023/07/08 11:35:44;;;;;;;5.60;3.97;;;;;;;;;;6213892;23;20048;-62
2023/07/08 11:38:13;;;;;;;4.93;3.20;;;;;;;;;;6213600;23;20343;-62
2023/07/08 11:40:50;;;;;;;4.78;3.33;;;;;;;;;;6214267;23;20344;-62
2023/07/08 11:43:16;;;;;;;4.20;3.22;;;;;;;;;;6213745;23;20104;-62
2023/07/08 11:45:44;;;;;;;6.18;3.72;;;;;;;;;;6213458;23;20088;-62
2023/07/08 11:48:15;;;;;;;5.43;3.85;;;;;;;;;;6186870;23;20021;-62
2023/07/08 11:50:41;;;;;;;;;;;;;;;;;;6214726;23;20031;-62
2023/07/08 11:53:12;;;;;;;7.70;3.60;;;;;;;;;;6213542;23;19911;-62
2023/07/08 11:55:38;;;;;;;5.35;3.80;;;;;;;;;;6214021;23;20012;-62
2023/07/08 11:58:07;;;;;;;5.53;3.33;;;;;;;;;;6213903;23;20439;-62
2023/07/08 12:00:34;;;;;;;6.75;3.72;;;;;;;;;;6213545;23;20104;-62
2023/07/08 12:03:05;;;;;;;5.90;3.55;;;;;;;;;;6213537;23;20016;-62
2023/07/08 12:05:35;;;;;;;5.33;3.40;;;;;;;;;;6213998;23;20016;-63
2023/07/08 12:08:03;;;;;;;5.07;3.72;;;;;;;;;;6213488;23;20767;-63
2023/07/08 12:10:34;;;;;;;5.50;3.70;;;;;;;;;;6213881;23;20013;-63
2023/07/08 12:13:01;;;;;;;6.30;3.67;;;;;;;;;;6213748;23;20020;-63
2023/07/08 12:15:28;;;;;;;7.97;3.92;;;;;;;;;;6212893;23;20494;-62
2023/07/08 12:17:59;;;;;;;6.97;3.45;;;;;;;;;;6213815;23;20462;-63
2023/07/08 12:20:33;;;;;;;6.30;4.05;;;;;;;;;;6213806;23;20095;-63
2023/07/08 12:23:00;;;;;;;5.72;3.72;;;;;;;;;;6212814;23;20021;-63
2023/07/08 12:25:28;;;;;;;4.93;3.53;;;;;;;;;;6213758;23;20317;-63
2023/07/08 12:27:54;;;;;;;5.60;3.95;;;;;;;;;;6213749;23;20435;-63
2023/07/08 12:30:21;;;;;;;6.45;4.18;;;;;;;;;;6213350;23;20092;-63
2023/07/08 12:32:47;;;;;;;6.82;4.50;;;;;;;;;;6213647;23;20070;-63
2023/07/08 12:35:25;;;;;;;5.05;4.10;;;;;;;;;;6213341;23;20028;-63
2023/07/08 12:37:52;;;;;;;7.03;4.03;;;;;;;;;;6212816;23;20031;-63
2023/07/08 12:40:18;;;;;;;6.97;3.65;;;;;;;;;;6213824;23;20027;-63
2023/07/08 12:42:45;;;;;;;6.07;3.47;;;;;;;;;;6213196;23;20016;-63
2023/07/08 12:45:16;;;;;;;9.70;3.95;;;;;;;;;;6212939;23;20082;-63
2023/07/08 12:47:42;;;;;;;7.00;3.73;;;;;;;;;;6213554;23;20018;-63
2023/07/08 12:50:09;;;;;;;7.60;4.63;;;;;;;;;;6213328;23;20027;-63
2023/07/08 12:52:35;;;;;;;9.10;4.88;;;;;;;;;;6212881;23;20021;-63
2023/07/08 12:55:01;;;;;;;7.75;4.38;;;;;;;;;;6213569;23;20017;-63
2023/07/08 12:57:27;;;;;;;5.47;4.63;;;;;;;;;;6213545;23;20016;-63
2023/07/08 12:59:53;;;;;;;6.28;4.65;;;;;;;;;;6213090;23;20017;-63
2023/07/08 13:02:21;;;;;;;6.88;4.72;;;;;;;;;;6213065;23;20334;-63
2023/07/08 13:04:49;;;;;;;6.35;4.85;;;;;;;;;;6213454;23;20047;-63
2023/07/08 13:07:32;;;;;;;5.93;4.63;;;;;;;;;;6213001;23;20526;-63
2023/07/08 13:09:59;;;;;;;5.18;4.40;;;;;;;;;;6213208;23;20012;-63
2023/07/08 13:12:26;;;;;;;7.53;4.40;;;;;;;;;;6213382;23;20016;-63
2023/07/08 13:14:53;;;;;;;6.05;4.68;;;;;;;;;;6212973;23;20044;-63
2023/07/08 13:17:19;;;;;;;6.40;4.60;;;;;;;;;;6213294;23;20563;-63
2023/07/08 13:19:45;;;;;;;9.55;4.72;;;;;;;;;;6213228;23;20020;-63
2023/07/08 13:22:19;;;;;;;7.50;5.05;;;;;;;;;;6211981;23;20051;-63
2023/07/08 13:24:46;;;;;;;9.20;4.65;;;;;;;;;;6213187;23;20009;-63
2023/07/08 13:27:22;;;;;;;6.82;4.78;;;;;;;;;;6213026;23;20492;-63
2023/07/08 13:29:48;;;;;;;8.68;4.57;;;;;;;;;;6212425;23;20017;-63
2023/07/08 13:32:15;;;;;;;6.78;5.00;;;;;;;;;;6212998;23;20047;-63
2023/07/08 13:34:41;;;;;;;8.95;4.93;;;;;;;;;;6212661;23;20083;-63
2023/07/08 13:37:11;;;;;;;6.60;4.95;;;;;;;;;;6212602;23;20083;-63
2023/07/08 13:39:37;;;;;;;6.65;5.25;;;;;;;;;;6213117;23;20444;-63
2023/07/08 13:42:04;;;;;;;5.65;4.35;;;;;;;;;;6212876;23;20086;-63
2023/07/08 13:44:30;;;;;;;5.88;4.75;;;;;;;;;;6212430;23;20023;-63
2023/07/08 13:46:57;;;;;;;6.85;5.22;;;;;;;;;;6213085;23;20061;-63
2023/07/08 13:49:27;;;;;;;8.75;4.93;;;;;;;;;;6212941;23;20009;-63
2023/07/08 13:52:05;;;;;;;6.70;5.50;;;;;;;;;;6212277;23;20017;-63
2023/07/08 13:54:38;;;;;;;9.50;5.07;;;;;;;;;;6212901;23;20008;-63
2023/07/08 13:57:09;;;;;;;6.25;4.95;;;;;;;;;;6212997;23;20009;-63
2023/07/08 13:59:35;;;;;;;6.63;4.88;;;;;;;;;;6212624;23;20009;-63
2023/07/08 14:02:01;;;;;;;7.00;4.93;;;;;;;;;;6212884;23;20096;-63
2023/07/08 14:04:32;;;;;;;9.48;4.93;;;;;;;;;;6212685;23;20020;-63
2023/07/08 14:06:58;;;;;;;6.35;4.72;;;;;;;;;;6212047;23;20020;-63
2023/07/08 14:09:25;;;;;;;6.00;4.65;;;;;;;;;;6212616;23;20013;-63
2023/07/08 14:11:51;;;;;;;9.82;5.53;;;;;;;;;;6212826;23;20044;-63
2023/07/08 14:14:18;;;;;;;7.32;5.30;;;;;;;;;;6212084;23;20023;-63
2023/07/08 14:16:51;;;;;;;9.55;5.32;;;;;;;;;;6212551;23;20091;-63
2023/07/08 14:19:20;;;;;;;8.05;4.97;;;;;;;;;;6212426;23;20008;-63
2023/07/08 14:21:46;;;;;;;8.27;4.70;;;;;;;;;;6212193;23;20022;-63
2023/07/08 14:24:13;;;;;;;7.07;5.13;;;;;;;;;;6212109;23;20017;-63
2023/07/08 14:26:42;;;;;;;8.50;5.78;;;;;;;;;;6212806;23;20383;-63
2023/07/08 14:29:08;;;;;;;7.60;5.10;;;;;;;;;;6212249;23;20096;-63
2023/07/08 14:31:34;;;;;;;7.47;5.28;;;;;;;;;;6212588;23;20047;-63
2023/07/08 14:34:06;;;;;;;7.00;5.55;;;;;;;;;;6212578;23;20016;-63
2023/07/08 14:36:32;;;;;;;7.28;5.07;;;;;;;;;;6211859;23;20020;-63
2023/07/08 14:38:58;;;;;;;8.18;5.68;;;;;;;;;;6212456;23;20067;-63
2023/07/08 14:41:25;;;;;;;12.35;5.20;;;;;;;;;;6212612;23;20095;-63
2023/07/08 14:43:51;;;;;;;8.23;4.97;;;;;;;;;;6211917;23;20020;-63
2023/07/08 14:46:17;;;;;;;8.70;5.20;;;;;;;;;;6212645;23;20450;-63
2023/07/08 14:48:43;;;;;;;8.45;5.30;;;;;;;;;;6212638;23;20016;-63
2023/07/08 14:51:09;;;;;;;7.28;5.43;;;;;;;;;;6212292;23;20491;-63